Time;durP1;ratioP1;P1;durP2;ratioP2;P2;SDS_P1;SDS_P2;PMS_P1;PMS_P2;Temp;Humidity;BMP_temperature;BMP_pressure;BME280_temperature;BME280_humidity;BME280_pressure;Samples;Min_cycle;Max_cycle;Signal;HPM_P1;HPM_P2
2022/05/21 00:00:52;;;;;;;5.65;3.83;;;21.20;99.90;;;;;;5090752;28;20262;-75
2022/05/21 00:03:19;;;;;;;4.70;3.97;;;21.00;99.90;;;;;;5090666;28;20205;-74
2022/05/21 00:05:46;;;;;;;6.65;3.60;;;21.00;99.90;;;;;;5089795;28;20209;-73
2022/05/21 00:08:13;;;;;;;4.90;3.60;;;21.00;99.90;;;;;;5090541;28;20263;-74
2022/05/21 00:10:41;;;;;;;7.40;4.50;;;21.00;99.90;;;;;;5089918;28;20722;-73
2022/05/21 00:13:09;;;;;;;5.57;3.65;;;21.10;99.90;;;;;;5091093;28;20233;-74
2022/05/21 00:15:38;;;;;;;8.50;4.30;;;21.00;99.90;;;;;;5093734;28;20744;-75
2022/05/21 00:18:05;;;;;;;6.80;3.55;;;21.00;99.90;;;;;;5093752;28;20201;-74
2022/05/21 00:20:48;;;;;;;5.80;4.22;;;20.90;99.90;;;;;;5093606;28;20205;-75
2022/05/21 00:23:17;;;;;;;4.70;3.58;;;20.90;99.90;;;;;;5094094;28;20217;-75
2022/05/21 00:25:46;;;;;;;6.07;3.78;;;20.90;99.90;;;;;;5093608;28;20205;-75
2022/05/21 00:28:13;;;;;;;7.05;4.68;;;20.90;99.90;;;;;;5093682;28;20206;-74
2022/05/21 00:30:41;;;;;;;4.30;3.88;;;21.00;99.90;;;;;;5093071;28;20202;-72
2022/05/21 00:33:09;;;;;;;5.38;3.65;;;21.00;99.90;;;;;;5093661;28;20290;-76
2022/05/21 00:35:36;;;;;;;7.20;4.45;;;20.80;99.90;;;;;;5093537;28;20339;-75
2022/05/21 00:38:03;;;;;;;6.53;4.88;;;20.70;99.90;;;;;;5093739;28;20197;-75
2022/05/21 00:40:31;;;;;;;8.50;4.15;;;20.80;99.90;;;;;;5093156;28;20259;-73
2022/05/21 00:42:58;;;;;;;8.82;4.03;;;20.90;99.90;;;;;;5093210;28;20250;-74
2022/05/21 00:45:25;;;;;;;6.45;4.20;;;20.60;99.90;;;;;;5093587;28;20205;-74
2022/05/21 00:47:53;;;;;;;5.03;4.53;;;20.60;99.90;;;;;;5093913;28;20251;-75
2022/05/21 00:50:25;;;;;;;5.82;4.80;;;20.60;99.90;;;;;;5093619;28;20205;-74
2022/05/21 00:52:54;;;;;;;7.22;4.85;;;20.50;99.90;;;;;;5093371;28;20233;-72
2022/05/21 00:55:26;;;;;;;4.00;3.30;;;20.50;99.90;;;;;;5093609;28;20254;-74
2022/05/21 01:00:39;;;;;;;7.25;4.00;;;20.60;99.90;;;;;;5092773;28;20296;-74
2022/05/21 01:03:08;;;;;;;7.28;4.45;;;20.50;99.90;;;;;;5093246;28;20235;-73
2022/05/21 01:05:36;;;;;;;7.50;4.32;;;20.50;99.90;;;;;;5092627;28;20205;-73
2022/05/21 01:08:04;;;;;;;6.60;4.93;;;20.40;99.90;;;;;;5093061;28;20197;-75
2022/05/21 01:10:35;;;;;;;8.55;4.47;;;20.40;99.90;;;;;;5092441;28;20213;-75
2022/05/21 01:13:05;;;;;;;7.05;4.63;;;20.40;99.90;;;;;;5092912;28;20237;-75
2022/05/21 01:15:35;;;;;;;6.18;4.38;;;20.40;99.90;;;;;;5092679;28;20206;-74
2022/05/21 01:18:05;;;;;;;6.22;4.00;;;20.40;99.90;;;;;;5092903;28;20262;-75
2022/05/21 01:20:38;;;;;;;6.68;4.38;;;20.40;99.90;;;;;;5092454;28;20212;-75
2022/05/21 01:23:07;;;;;;;5.43;4.13;;;20.20;99.90;;;;;;5092809;28;20201;-75
2022/05/21 01:25:38;;;;;;;6.07;3.97;;;20.40;99.90;;;;;;5091331;28;20618;-74
2022/05/21 01:28:07;;;;;;;4.05;3.67;;;20.30;99.90;;;;;;5092432;28;20292;-75
2022/05/21 01:30:37;;;;;;;8.90;5.60;;;20.40;99.90;;;;;;5092179;28;20740;-75
2022/05/21 01:33:05;;;;;;;5.38;4.45;;;20.20;99.90;;;;;;5092519;28;20230;-75
2022/05/21 01:35:33;;;;;;;4.95;4.38;;;20.20;99.90;;;;;;5092455;28;20259;-75
2022/05/21 01:38:00;;;;;;;6.28;4.90;;;20.20;99.90;;;;;;5092692;28;20255;-74
2022/05/21 01:40:29;;;;;;;7.13;4.05;;;20.20;99.90;;;;;;5091956;28;20210;-75
2022/05/21 01:45:48;;;;;;;4.68;4.07;;;20.30;99.90;;;;;;5034893;28;20196;-74
2022/05/21 01:48:18;;;;;;;5.65;4.65;;;20.20;99.90;;;;;;5092102;28;20677;-74
2022/05/21 01:50:46;;;;;;;5.43;4.55;;;20.30;99.90;;;;;;5091697;28;20213;-74
2022/05/21 01:53:14;;;;;;;4.30;3.45;;;20.30;99.90;;;;;;5092092;28;20261;-74
2022/05/21 01:55:43;;;;;;;6.40;4.22;;;20.20;99.90;;;;;;5091647;28;20197;-74
2022/05/21 01:58:10;;;;;;;5.88;4.50;;;20.20;99.90;;;;;;5092028;28;20266;-74
2022/05/21 02:00:37;;;;;;;9.30;4.03;;;20.10;99.90;;;;;;5091920;28;20250;-74
2022/05/21 02:03:05;;;;;;;7.50;4.18;;;20.10;99.90;;;;;;5092189;28;20197;-74
2022/05/21 02:05:32;;;;;;;9.75;4.10;;;20.20;99.90;;;;;;5091370;28;20750;-74
2022/05/21 02:07:59;;;;;;;6.40;4.47;;;20.20;99.90;;;;;;5091764;28;20201;-74
2022/05/21 02:10:26;;;;;;;5.05;4.07;;;20.00;99.90;;;;;;5091361;28;20254;-74
2022/05/21 02:12:54;;;;;;;7.35;4.68;;;20.00;99.90;;;;;;5092187;28;20229;-74
2022/05/21 02:15:21;;;;;;;6.25;4.25;;;20.10;99.90;;;;;;5092151;28;20246;-74
2022/05/21 02:17:48;;;;;;;7.22;5.32;;;20.10;99.90;;;;;;5091582;28;20673;-72
2022/05/21 02:20:16;;;;;;;7.10;4.03;;;19.90;99.90;;;;;;5091785;28;20282;-72
2022/05/21 02:22:42;;;;;;;4.90;4.43;;;19.90;99.90;;;;;;5091133;28;20214;-73
2022/05/21 02:25:10;;;;;;;6.40;4.20;;;19.80;99.90;;;;;;5090238;28;20262;-73
2022/05/21 02:27:37;;;;;;;8.63;4.75;;;19.80;99.90;;;;;;5071088;28;20271;-73
2022/05/21 02:30:07;;;;;;;6.57;4.40;;;19.70;99.90;;;;;;5071332;28;20202;-72
2022/05/21 02:32:34;;;;;;;9.13;4.90;;;19.80;99.90;;;;;;5070728;28;20261;-73
2022/05/21 02:35:00;;;;;;;12.05;4.05;;;19.90;99.90;;;;;;5071243;28;20251;-73
2022/05/21 02:40:13;;;;;;;7.13;4.22;;;19.80;99.90;;;;;;5071014;28;20227;-73
2022/05/21 02:42:46;;;;;;;5.18;3.63;;;19.70;99.90;;;;;;5070422;28;20213;-74
2022/05/21 02:45:18;;;;;;;7.60;4.50;;;19.80;99.90;;;;;;5070901;28;20210;-73
2022/05/21 02:47:45;;;;;;;8.00;4.15;;;19.80;99.90;;;;;;5070697;28;20702;-73
2022/05/21 02:50:14;;;;;;;5.88;4.38;;;19.80;99.90;;;;;;5070744;28;20206;-72
2022/05/21 02:52:41;;;;;;;5.75;5.15;;;19.70;99.90;;;;;;5070314;28;20569;-73
2022/05/21 02:55:10;;;;;;;7.28;4.63;;;19.80;99.90;;;;;;5071014;28;20252;-73
2022/05/21 02:57:38;;;;;;;8.98;5.13;;;19.70;99.90;;;;;;5070509;28;20206;-73
2022/05/21 03:00:07;;;;;;;6.65;4.20;;;19.70;99.90;;;;;;5070672;28;20217;-74
2022/05/21 03:02:36;;;;;;;5.97;4.00;;;19.70;99.90;;;;;;5070314;28;20248;-74
2022/05/21 03:05:03;;;;;;;6.25;4.40;;;19.70;99.90;;;;;;5070970;28;20248;-73
2022/05/21 03:07:31;;;;;;;7.63;4.25;;;19.70;99.90;;;;;;5070103;28;20693;-74
2022/05/21 03:12:42;;;;;;;5.68;5.00;;;19.70;99.90;;;;;;5070356;28;20251;-74
2022/05/21 03:15:10;;;;;;;6.30;4.22;;;19.70;99.90;;;;;;5070616;28;20206;-74
2022/05/21 03:17:38;;;;;;;10.55;5.15;;;19.60;99.90;;;;;;5070461;28;20206;-74
2022/05/21 03:20:07;;;;;;;6.70;4.53;;;19.70;99.90;;;;;;5070699;28;20210;-74
2022/05/21 03:22:34;;;;;;;9.73;4.60;;;19.70;99.90;;;;;;5070140;28;20214;-74
2022/05/21 03:25:01;;;;;;;5.22;4.43;;;19.70;99.90;;;;;;5070570;28;20652;-75
2022/05/21 03:27:28;;;;;;;7.50;5.13;;;19.50;99.90;;;;;;5070180;28;20198;-75
2022/05/21 03:29:55;;;;;;;8.82;4.70;;;19.50;99.90;;;;;;5070738;28;20210;-74
2022/05/21 03:32:22;;;;;;;8.40;4.05;;;19.40;99.90;;;;;;5070933;28;20198;-75
2022/05/21 03:34:50;;;;;;;8.52;5.25;;;19.30;99.90;;;;;;5070371;28;20234;-75
2022/05/21 03:37:17;;;;;;;4.47;4.05;;;19.40;99.90;;;;;;5070197;28;20727;-76
2022/05/21 03:39:44;;;;;;;6.88;4.32;;;19.40;99.90;;;;;;5070081;28;20750;-76
2022/05/21 03:42:11;;;;;;;6.10;4.15;;;19.30;99.90;;;;;;5070234;28;20206;-76
2022/05/21 03:44:38;;;;;;;10.02;5.90;;;19.20;99.90;;;;;;5070166;28;20202;-75
2022/05/21 03:47:06;;;;;;;5.75;4.30;;;19.20;99.90;;;;;;5070629;28;20251;-74
2022/05/21 03:49:33;;;;;;;7.22;4.40;;;19.30;99.90;;;;;;5073275;28;20217;-76
2022/05/21 03:52:01;;;;;;;9.23;5.93;;;19.10;99.90;;;;;;5074518;28;20248;-75
2022/05/21 03:54:28;;;;;;;8.65;5.25;;;19.00;99.90;;;;;;5073835;28;20283;-75
2022/05/21 03:56:55;;;;;;;9.80;5.15;;;19.00;99.90;;;;;;5074445;28;20260;-74
2022/05/21 03:59:22;;;;;;;7.75;4.95;;;19.00;99.90;;;;;;5074405;28;20744;-74
2022/05/21 04:01:49;;;;;;;6.03;5.03;;;19.00;99.90;;;;;;5074130;28;20279;-75
2022/05/21 04:04:16;;;;;;;10.57;6.22;;;19.00;99.90;;;;;;5073852;28;20206;-75
2022/05/21 04:06:43;;;;;;;22.20;5.82;;;19.00;99.90;;;;;;5073603;28;20255;-75
2022/05/21 04:09:11;;;;;;;10.18;5.25;;;18.90;99.90;;;;;;5073996;28;20207;-74
2022/05/21 04:11:38;;;;;;;8.88;5.25;;;18.90;99.90;;;;;;5073750;28;20862;-75
2022/05/21 04:14:07;;;;;;;9.38;5.13;;;19.00;99.90;;;;;;5073807;28;20287;-75
2022/05/21 04:16:34;;;;;;;11.80;5.57;;;18.90;99.90;;;;;;5073514;28;20228;-75
2022/05/21 04:19:01;;;;;;;7.55;5.78;;;18.90;99.90;;;;;;5073778;28;20202;-74
2022/05/21 04:21:28;;;;;;;8.00;5.88;;;18.90;99.90;;;;;;5073398;28;20252;-74
2022/05/21 04:23:56;;;;;;;7.03;4.82;;;18.90;99.90;;;;;;5073732;28;20202;-74
2022/05/21 04:26:24;;;;;;;5.50;4.43;;;18.80;99.90;;;;;;5074209;28;20297;-74
2022/05/21 04:28:51;;;;;;;6.50;5.35;;;18.80;99.90;;;;;;5073801;28;20260;-74
2022/05/21 04:31:18;;;;;;;6.05;4.53;;;18.80;99.90;;;;;;5073836;28;20654;-75
2022/05/21 04:33:45;;;;;;;6.70;4.50;;;18.70;99.90;;;;;;5072825;28;20279;-75
2022/05/21 04:36:22;;;;;;;10.10;6.28;;;18.60;99.90;;;;;;5073408;28;20203;-73
2022/05/21 04:38:51;;;;;;;13.00;5.75;;;18.60;99.90;;;;;;5073790;28;20289;-73
2022/05/21 04:41:19;;;;;;;10.10;6.00;;;18.60;99.90;;;;;;5073632;28;20210;-73
2022/05/21 04:43:48;;;;;;;8.98;6.03;;;18.50;99.90;;;;;;5072971;28;20252;-75
2022/05/21 04:46:16;;;;;;;9.93;6.32;;;18.70;99.90;;;;;;5073462;28;20202;-74
2022/05/21 04:48:43;;;;;;;8.25;7.20;;;18.70;99.90;;;;;;5072491;28;20511;-75
2022/05/21 04:51:10;;;;;;;8.95;6.28;;;18.70;99.90;;;;;;5073218;28;20267;-76
2022/05/21 04:53:38;;;;;;;9.77;6.10;;;18.80;99.90;;;;;;5072793;28;20272;-75
2022/05/21 04:56:06;;;;;;;11.77;5.82;;;18.70;99.90;;;;;;5073082;28;20615;-75
2022/05/21 04:58:34;;;;;;;8.55;5.85;;;18.70;99.90;;;;;;5072277;28;20731;-75
2022/05/21 05:01:05;;;;;;;9.25;6.28;;;18.80;99.90;;;;;;5071885;28;20681;-72
2022/05/21 05:03:32;;;;;;;7.68;5.38;;;18.90;99.90;;;;;;5072109;28;20717;-72
2022/05/21 05:06:00;;;;;;;8.30;5.63;;;18.80;99.90;;;;;;5073151;28;20202;-74
2022/05/21 05:08:28;;;;;;;6.05;5.43;;;18.90;99.90;;;;;;5072636;28;20202;-74
2022/05/21 05:10:55;;;;;;;12.38;6.40;;;18.70;99.90;;;;;;5072986;28;20259;-73
2022/05/21 05:13:22;;;;;;;10.63;6.75;;;18.70;99.90;;;;;;5072945;28;20206;-73
2022/05/21 05:15:49;;;;;;;8.70;5.57;;;18.60;99.90;;;;;;5072616;28;20213;-73
2022/05/21 05:18:19;;;;;;;10.93;6.47;;;18.60;99.90;;;;;;5072835;28;20255;-74
2022/05/21 05:20:46;;;;;;;9.35;6.85;;;18.70;99.90;;;;;;5072091;28;20297;-74
2022/05/21 05:23:13;;;;;;;10.77;6.05;;;18.90;99.90;;;;;;5072653;28;20210;-74
2022/05/21 05:25:41;;;;;;;8.95;6.05;;;18.80;99.90;;;;;;5072145;28;20206;-74
2022/05/21 05:28:15;;;;;;;10.40;6.80;;;18.80;99.90;;;;;;5072485;28;20331;-74
2022/05/21 05:30:42;;;;;;;15.13;5.68;;;18.90;99.90;;;;;;5072056;28;20206;-74
2022/05/21 05:33:09;;;;;;;8.93;5.57;;;19.00;99.90;;;;;;5072452;28;20251;-73
2022/05/21 05:35:38;;;;;;;5.38;4.88;;;18.90;99.90;;;;;;5071831;28;20233;-74
2022/05/21 05:38:07;;;;;;;8.27;6.47;;;18.90;99.90;;;;;;5072473;28;20206;-78
2022/05/21 05:40:35;;;;;;;6.32;5.70;;;18.90;99.90;;;;;;5075548;28;20263;-78
2022/05/21 05:43:02;;;;;;;9.80;5.85;;;18.90;99.90;;;;;;5071733;28;20256;-67
2022/05/21 05:45:29;;;;;;;9.10;6.38;;;19.00;99.90;;;;;;5076366;28;20260;-69
2022/05/21 05:47:57;;;;;;;12.18;6.28;;;19.00;99.90;;;;;;5092547;28;20205;-68
2022/05/21 05:50:24;;;;;;;10.90;5.90;;;19.00;99.90;;;;;;5092147;28;20708;-69
2022/05/21 05:52:53;;;;;;;8.27;5.40;;;19.20;99.90;;;;;;5080028;28;20271;-69
2022/05/21 05:55:20;;;;;;;6.68;4.72;;;19.10;99.90;;;;;;5072201;28;20316;-71
2022/05/21 05:57:51;;;;;;;6.85;5.68;;;19.20;99.90;;;;;;5071636;28;20267;-71
2022/05/21 06:00:18;;;;;;;6.05;5.03;;;19.30;99.90;;;;;;5071677;28;20289;-71
2022/05/21 06:03:01;;;;;;;5.05;4.55;;;19.50;99.90;;;;;;5071613;28;20210;-74
2022/05/21 06:05:31;;;;;;;6.03;5.32;;;19.60;99.90;;;;;;5071308;28;20336;-71
2022/05/21 06:08:01;;;;;;;7.00;4.78;;;19.60;99.90;;;;;;5071667;28;20208;-71
2022/05/21 06:10:30;;;;;;;7.15;5.20;;;19.60;99.90;;;;;;5070852;28;20561;-72
2022/05/21 06:12:58;;;;;;;7.03;4.18;;;19.80;99.90;;;;;;5071635;28;20583;-73
2022/05/21 06:15:26;;;;;;;6.32;4.50;;;19.90;99.90;;;;;;5071082;28;20229;-73
2022/05/21 06:17:54;;;;;;;6.03;4.55;;;20.00;99.90;;;;;;5072105;28;20205;-73
2022/05/21 06:20:23;;;;;;;7.80;5.63;;;19.90;99.90;;;;;;5076875;28;20201;-74
2022/05/21 06:22:50;;;;;;;11.63;4.90;;;19.90;99.90;;;;;;5086589;28;20201;-76
2022/05/21 06:25:21;;;;;;;6.10;4.55;;;20.20;99.90;;;;;;5086489;28;20213;-76
2022/05/21 06:27:50;;;;;;;4.90;3.90;;;20.20;99.90;;;;;;5091115;28;20205;-76
2022/05/21 06:30:18;;;;;;;8.65;6.60;;;20.40;99.90;;;;;;5090943;28;20228;-75
2022/05/21 06:32:46;;;;;;;5.68;4.80;;;20.40;99.90;;;;;;5071718;28;20221;-74
2022/05/21 06:35:15;;;;;;;7.07;5.43;;;20.50;99.90;;;;;;5071157;28;20690;-74
2022/05/21 06:37:41;;;;;;;9.93;6.80;;;20.70;99.90;;;;;;5070857;28;20666;-74
2022/05/21 06:40:10;;;;;;;9.43;6.00;;;20.80;99.90;;;;;;5071066;28;20202;-76
2022/05/21 06:42:38;;;;;;;5.20;4.63;;;20.90;99.90;;;;;;5070734;28;20202;-74
2022/05/21 06:45:06;;;;;;;9.65;5.95;;;21.00;99.90;;;;;;5071029;28;20252;-74
2022/05/21 06:47:33;;;;;;;8.55;5.00;;;21.20;99.90;;;;;;5070646;28;20272;-74
2022/05/21 06:50:00;;;;;;;4.78;4.38;;;21.40;99.90;;;;;;5071094;28;20206;-74
2022/05/21 06:52:30;;;;;;;4.47;4.07;;;21.50;99.90;;;;;;5070483;28;20678;-74
2022/05/21 06:54:58;;;;;;;7.53;4.15;;;21.50;99.90;;;;;;5071038;28;20230;-75
2022/05/21 06:57:28;;;;;;;5.78;3.97;;;21.40;99.90;;;;;;5070817;28;20241;-75
2022/05/21 06:59:56;;;;;;;9.05;3.85;;;21.50;99.90;;;;;;5070766;28;20202;-74
2022/05/21 07:02:24;;;;;;;9.77;5.03;;;21.70;99.90;;;;;;5070852;28;20210;-75
2022/05/21 07:07:43;;;;;;;7.25;3.88;;;22.00;99.90;;;;;;5072642;28;20205;-71
2022/05/21 07:10:13;;;;;;;4.70;3.83;;;22.20;99.90;;;;;;5073262;28;20711;-73
2022/05/21 07:12:41;;;;;;;5.05;3.22;;;22.30;99.90;;;;;;5089572;28;20201;-74
2022/05/21 07:15:10;;;;;;;4.05;3.67;;;22.40;99.90;;;;;;5085914;28;20236;-74
2022/05/21 07:17:37;;;;;;;5.65;3.38;;;22.40;99.90;;;;;;5090197;28;20275;-74
2022/05/21 07:20:06;;;;;;;5.55;3.70;;;22.60;99.90;;;;;;5090664;28;20197;-73
2022/05/21 07:22:34;;;;;;;4.30;3.30;;;22.60;99.90;;;;;;5086811;28;20676;-73
2022/05/21 07:25:02;;;;;;;3.60;3.30;;;22.80;99.90;;;;;;5070711;28;20202;-73
2022/05/21 07:27:29;;;;;;;6.88;3.78;;;22.80;99.90;;;;;;5070107;28;20626;-73
2022/05/21 07:29:56;;;;;;;4.10;3.70;;;22.60;99.90;;;;;;5070735;28;20231;-77
2022/05/21 07:32:27;;;;;;;10.85;4.03;;;22.80;99.90;;;;;;5070837;28;20264;-74
2022/05/21 07:34:58;;;;;;;4.22;3.08;;;22.90;99.90;;;;;;5070488;28;20246;-75
2022/05/21 07:37:25;;;;;;;7.80;3.70;;;23.10;99.90;;;;;;5070188;28;20292;-74
2022/05/21 07:39:52;;;;;;;6.72;3.63;;;23.30;99.90;;;;;;5070777;28;20212;-74
2022/05/21 07:42:19;;;;;;;7.28;3.10;;;23.40;99.90;;;;;;5070506;28;20202;-77
2022/05/21 07:44:46;;;;;;;4.78;3.35;;;23.30;99.90;;;;;;5070269;28;20248;-76
2022/05/21 07:47:13;;;;;;;5.00;3.17;;;23.30;99.90;;;;;;5070460;28;21144;-72
2022/05/21 07:49:42;;;;;;;4.13;3.15;;;23.50;99.90;;;;;;5069984;28;20264;-77
2022/05/21 07:52:09;;;;;;;6.32;3.30;;;23.40;99.90;;;;;;5070447;28;20244;-73
2022/05/21 07:54:36;;;;;;;5.70;3.67;;;23.70;99.90;;;;;;5070119;28;20279;-75
2022/05/21 07:57:04;;;;;;;6.28;3.55;;;23.60;99.90;;;;;;5070196;28;20604;-77
2022/05/21 07:59:31;;;;;;;4.10;3.20;;;23.90;99.90;;;;;;5070653;28;20210;-77
2022/05/21 08:01:58;;;;;;;5.10;3.03;;;24.10;99.90;;;;;;5089608;28;20391;-77
2022/05/21 08:04:25;;;;;;;9.75;3.42;;;23.90;99.90;;;;;;5090114;28;20251;-76
2022/05/21 08:06:54;;;;;;;5.05;3.17;;;24.70;99.90;;;;;;5090858;28;20252;-75
2022/05/21 08:09:21;;;;;;;3.60;2.75;;;24.70;99.90;;;;;;5090846;28;20730;-75
2022/05/21 08:11:48;;;;;;;7.97;3.10;;;24.80;99.90;;;;;;5090132;28;20570;-77
2022/05/21 08:14:16;;;;;;;3.10;2.80;;;24.90;99.90;;;;;;5090349;28;20567;-79
2022/05/21 08:16:43;;;;;;;4.93;2.88;;;24.90;99.90;;;;;;5090017;28;20213;-75
2022/05/21 08:19:12;;;;;;;3.75;2.88;;;25.00;99.90;;;;;;5090566;28;20202;-75
2022/05/21 08:21:39;;;;;;;4.88;3.13;;;24.70;99.90;;;;;;5090035;28;20684;-74
2022/05/21 08:26:58;;;;;;;4.57;3.00;;;24.90;99.90;;;;;;5090322;28;20208;-76
2022/05/21 08:29:27;;;;;;;7.55;3.40;;;25.00;99.90;;;;;;5088105;28;20621;-75
2022/05/21 08:31:55;;;;;;;3.35;2.67;;;25.40;99.90;;;;;;5080422;28;20211;-76
2022/05/21 08:34:23;;;;;;;4.85;3.70;;;25.30;99.90;;;;;;5086660;28;20206;-76
2022/05/21 08:36:50;;;;;;;4.57;3.55;;;25.30;99.90;;;;;;5085065;28;20206;-74
2022/05/21 08:39:19;;;;;;;3.03;2.83;;;25.50;99.90;;;;;;5093541;28;20206;-75
2022/05/21 08:41:50;;;;;;;7.05;3.13;;;25.50;99.90;;;;;;5092856;28;20286;-75
2022/05/21 08:44:24;;;;;;;4.30;2.90;;;25.50;99.90;;;;;;5093307;28;20587;-74
2022/05/21 08:47:02;;;;;;;4.72;3.28;;;25.70;99.90;;;;;;5093679;28;20215;-75
2022/05/21 08:49:33;;;;;;;4.60;3.20;;;26.10;99.90;;;;;;5092701;28;20209;-76
2022/05/21 08:52:08;;;;;;;3.58;3.17;;;26.10;99.90;;;;;;5093582;28;20205;-74
2022/05/21 08:54:41;;;;;;;4.35;2.70;;;26.20;99.90;;;;;;5092593;28;20288;-74
2022/05/21 08:57:13;;;;;;;6.55;3.30;;;26.30;99.90;;;;;;5093272;28;20723;-72
2022/05/21 08:59:48;;;;;;;5.80;4.43;;;26.90;99.90;;;;;;5092873;28;20259;-74
2022/05/21 09:02:18;;;;;;;5.55;3.42;;;26.70;99.90;;;;;;5093432;28;20289;-76
2022/05/21 09:04:46;;;;;;;5.10;3.38;;;28.10;99.90;;;;;;5092920;28;20210;-76
2022/05/21 09:07:20;;;;;;;3.45;3.13;;;30.30;99.90;;;;;;5093243;28;20206;-77
2022/05/21 09:10:03;;;;;;;5.95;3.22;;;29.90;99.90;;;;;;5092418;28;20297;-76
2022/05/21 09:12:45;;;;;;;4.40;3.33;;;27.70;99.90;;;;;;5092105;28;20284;-74
2022/05/21 09:18:14;;;;;;;3.97;2.80;;;27.00;99.90;;;;;;5079406;28;20197;-75
2022/05/21 09:20:50;;;;;;;6.25;3.25;;;27.30;99.90;;;;;;5088353;28;20206;-73
2022/05/21 09:23:17;;;;;;;4.18;2.80;;;26.80;99.90;;;;;;5092490;28;20677;-76
2022/05/21 09:25:45;;;;;;;6.20;3.28;;;27.60;99.90;;;;;;5092103;28;20677;-76
2022/05/21 09:28:20;;;;;;;4.90;2.97;;;27.90;99.90;;;;;;5092265;28;20205;-74
2022/05/21 09:30:57;;;;;;;4.72;2.80;;;28.10;99.90;;;;;;5089783;28;20292;-74
2022/05/21 09:33:28;;;;;;;6.47;3.20;;;28.70;99.90;;;;;;5092550;28;20244;-74
2022/05/21 09:35:56;;;;;;;2.80;2.33;;;29.40;99.90;;;;;;5092392;28;20272;-75
2022/05/21 09:38:26;;;;;;;5.30;3.45;;;28.90;99.90;;;;;;5092216;28;20730;-72
2022/05/21 09:41:17;;;;;;;6.10;3.95;;;28.70;99.90;;;;;;5092052;28;20201;-70
2022/05/21 09:46:36;;;;;;;7.10;3.13;;;28.70;99.90;;;;;;5091528;28;20216;-76
2022/05/21 09:49:23;;;;;;;3.20;2.95;;;30.10;99.90;;;;;;5091486;28;20258;-76
2022/05/21 09:51:59;;;;;;;4.40;3.10;;;30.40;99.90;;;;;;5092909;28;20196;-74
2022/05/21 09:54:29;;;;;;;3.70;3.33;;;31.10;99.90;;;;;;5091546;28;20250;-74
2022/05/21 09:56:59;;;;;;;4.85;3.15;;;31.60;99.90;;;;;;5092222;28;20228;-74
2022/05/21 09:59:29;;;;;;;5.13;3.30;;;32.70;99.90;;;;;;5091002;28;20197;-72
2022/05/21 10:01:59;;;;;;;4.50;3.28;;;34.30;99.90;;;;;;5089056;28;20204;-75
2022/05/21 10:04:35;;;;;;;3.60;3.40;;;36.30;99.90;;;;;;5091717;28;20694;-75
2022/05/21 10:07:10;;;;;;;4.38;3.22;;;35.40;99.90;;;;;;5091921;28;20208;-74
2022/05/21 10:12:33;;;;;;;6.13;3.10;;;35.80;99.90;;;;;;5091696;28;20201;-75
2022/05/21 10:15:06;;;;;;;5.53;2.83;;;36.80;99.90;;;;;;5091959;28;20196;-72
2022/05/21 10:17:37;;;;;;;4.30;2.90;;;36.90;99.90;;;;;;5091374;28;20623;-72
2022/05/21 10:20:13;;;;;;;4.05;3.22;;;35.70;99.90;;;;;;5091849;28;20205;-76
2022/05/21 10:22:49;;;;;;;4.35;3.25;;;36.20;99.90;;;;;;5091237;28;20208;-75
2022/05/21 10:25:18;;;;;;;6.05;4.07;;;36.90;99.90;;;;;;5091676;28;20219;-73
2022/05/21 10:28:03;;;;;;;5.65;3.03;;;36.60;99.90;;;;;;5091363;28;20209;-74
2022/05/21 10:30:36;;;;;;;4.10;2.95;;;35.90;99.90;;;;;;5090822;28;20205;-75
2022/05/21 10:33:23;;;;;;;7.90;4.78;;;33.80;99.90;;;;;;5091380;28;20249;-71
2022/05/21 10:36:14;;;;;;;5.05;3.17;;;30.60;99.90;;;;;;5091227;28;20228;-70
2022/05/21 10:39:15;;;;;;;4.85;3.13;;;29.60;99.90;;;;;;5091284;28;20284;-74
2022/05/21 10:42:18;;;;;;;6.05;3.28;;;30.10;99.90;;;;;;5073180;28;20254;-73
2022/05/21 10:44:58;;;;;;;3.67;3.13;;;29.40;99.90;;;;;;5091140;28;20264;-74
2022/05/21 10:47:36;;;;;;;3.90;2.85;;;29.60;99.90;;;;;;5091012;28;20257;-72
2022/05/21 10:50:19;;;;;;;4.13;3.40;;;29.70;99.90;;;;;;5091074;28;20209;-74
2022/05/21 10:53:08;;;;;;;4.80;3.25;;;29.70;99.90;;;;;;5090844;28;20235;-74
2022/05/21 10:55:41;;;;;;;5.10;3.00;;;29.80;99.90;;;;;;5090758;28;20278;-74
2022/05/21 10:58:32;;;;;;;5.43;3.05;;;29.90;99.90;;;;;;5090386;28;20201;-73
2022/05/21 11:01:12;;;;;;;5.95;2.83;;;30.20;99.90;;;;;;5091271;28;20220;-74
2022/05/21 11:04:13;;;;;;;7.43;4.05;;;30.10;99.90;;;;;;5090722;28;20205;-74
2022/05/21 11:07:06;;;;;;;8.15;2.97;;;30.10;99.90;;;;;;5090489;28;20266;-73
2022/05/21 11:09:36;;;;;;;4.25;3.20;;;29.40;99.90;;;;;;5090591;28;20662;-74
2022/05/21 11:12:06;;;;;;;4.78;3.63;;;29.70;99.90;;;;;;5090977;28;20202;-72
2022/05/21 11:14:43;;;;;;;6.47;3.72;;;29.50;99.90;;;;;;5090672;28;20981;-72
2022/05/21 11:17:31;;;;;;;8.18;5.68;;;29.90;99.90;;;;;;5090972;28;20248;-75
2022/05/21 11:20:04;;;;;;;3.05;2.80;;;29.90;99.90;;;;;;5090784;28;20201;-73
2022/05/21 11:22:38;;;;;;;4.97;3.78;;;30.10;99.90;;;;;;5090558;28;20205;-74
2022/05/21 11:25:14;;;;;;;3.95;2.63;;;30.50;99.90;;;;;;5090881;28;20206;-74
2022/05/21 11:27:50;;;;;;;5.97;3.30;;;29.80;99.90;;;;;;5090508;28;20254;-74
2022/05/21 11:30:19;;;;;;;3.83;2.67;;;30.00;99.90;;;;;;5090701;28;20669;-72
2022/05/21 11:38:31;;;;;;;8.88;3.60;;;30.70;99.90;;;;;;5090435;28;20691;-74
2022/05/21 11:44:55;;;;;;;3.83;2.60;;;30.30;99.90;;;;;;5090537;28;20209;-73
2022/05/21 11:46:47;;;;;;;4.90;2.85;;;30.40;99.90;;;;;;5090265;28;20301;-74
2022/05/21 11:49:47;;;;;;;4.93;3.30;;;30.70;99.90;;;;;;5090434;28;20209;-75
2022/05/21 11:52:51;;;;;;;5.68;3.30;;;30.80;99.90;;;;;;5067715;28;20212;-73
2022/05/21 11:55:23;;;;;;;4.97;2.72;;;30.50;99.90;;;;;;5090924;28;20227;-74
2022/05/21 11:57:51;;;;;;;6.38;3.35;;;30.20;99.90;;;;;;5090643;28;20603;-72
2022/05/21 12:00:46;;;;;;;5.80;2.90;;;30.70;99.90;;;;;;5090831;28;20614;-72
2022/05/21 12:03:22;;;;;;;3.67;3.05;;;31.00;99.90;;;;;;5087598;28;20217;-74
2022/05/21 12:06:38;;;;;;;3.20;2.92;;;31.20;99.90;;;;;;5090147;28;20295;-75
2022/05/21 12:09:21;;;;;;;3.53;2.95;;;30.60;99.90;;;;;;5091674;28;20278;-76
2022/05/21 12:11:48;;;;;;;3.50;3.13;;;30.70;99.90;;;;;;5094047;28;20216;-72
2022/05/21 12:14:20;;;;;;;4.88;3.65;;;31.00;99.90;;;;;;5094408;28;20247;-75
2022/05/21 12:16:54;;;;;;;7.93;3.53;;;31.30;99.90;;;;;;5093826;28;20236;-76
2022/05/21 12:20:04;;;;;;;4.30;3.30;;;31.50;99.90;;;;;;5094551;28;20266;-75
2022/05/21 12:22:53;;;;;;;6.35;3.50;;;31.50;99.90;;;;;;5093788;28;20212;-75
2022/05/21 12:25:57;;;;;;;4.05;3.22;;;31.00;99.90;;;;;;5094467;28;20205;-73
2022/05/21 12:28:46;;;;;;;3.85;3.40;;;30.70;99.90;;;;;;5094021;28;20201;-72
2022/05/21 12:31:23;;;;;;;4.38;3.10;;;30.60;99.90;;;;;;5094014;28;20663;-75
2022/05/21 12:34:12;;;;;;;5.13;2.90;;;30.60;99.90;;;;;;5094235;28;20201;-71
2022/05/21 12:36:59;;;;;;;5.63;3.30;;;30.30;99.90;;;;;;5086180;28;20778;-73
2022/05/21 12:39:33;;;;;;;5.57;3.22;;;30.50;99.90;;;;;;5093461;28;20572;-75
2022/05/21 12:42:08;;;;;;;4.18;3.78;;;30.60;99.90;;;;;;5093747;28;20291;-75
2022/05/21 12:44:45;;;;;;;4.75;3.40;;;31.10;99.90;;;;;;5093097;28;20205;-75
2022/05/21 12:47:13;;;;;;;9.95;3.42;;;31.40;99.90;;;;;;5093499;28;20254;-75
2022/05/21 12:49:49;;;;;;;6.05;3.40;;;31.00;99.90;;;;;;5093225;28;20213;-72
2022/05/21 12:52:29;;;;;;;5.03;3.70;;;31.10;99.90;;;;;;5093615;28;20641;-74
2022/05/21 12:55:25;;;;;;;4.05;2.95;;;31.00;99.90;;;;;;5093567;28;20290;-74
2022/05/21 12:57:53;;;;;;;4.75;3.03;;;31.70;99.90;;;;;;5093830;28;20241;-74
2022/05/21 13:00:23;;;;;;;4.93;3.15;;;31.80;99.90;;;;;;5093709;28;20729;-72
2022/05/21 13:02:53;;;;;;;6.20;3.17;;;31.90;99.90;;;;;;5093878;28;20204;-74
2022/05/21 13:05:22;;;;;;;6.22;3.17;;;32.10;99.90;;;;;;5093774;28;20603;-74
2022/05/21 13:07:51;;;;;;;7.60;2.83;;;31.60;99.90;;;;;;5093121;28;20205;-75
2022/05/21 13:10:25;;;;;;;6.90;2.92;;;31.30;99.90;;;;;;5093711;28;20197;-78
2022/05/21 13:12:55;;;;;;;6.18;3.53;;;31.30;99.90;;;;;;5093466;28;20204;-77
2022/05/21 13:15:26;;;;;;;3.08;2.47;;;31.60;99.90;;;;;;5093215;28;20265;-73
2022/05/21 13:18:07;;;;;;;6.53;3.97;;;31.60;99.90;;;;;;5093047;28;20236;-72
2022/05/21 13:20:41;;;;;;;6.55;3.40;;;31.40;99.90;;;;;;5091698;28;20681;-75
2022/05/21 13:23:21;;;;;;;7.50;3.42;;;31.70;99.90;;;;;;5093038;28;20212;-74
2022/05/21 13:25:53;;;;;;;7.63;3.88;;;31.70;99.90;;;;;;5092885;28;20205;-75
2022/05/21 13:28:23;;;;;;;5.20;2.85;;;31.80;99.90;;;;;;5093156;28;20205;-73
2022/05/21 13:30:51;;;;;;;5.68;2.92;;;31.80;99.90;;;;;;5092711;28;20229;-73
2022/05/21 13:33:31;;;;;;;5.00;3.00;;;31.90;99.90;;;;;;5093165;28;20205;-77
2022/05/21 13:36:00;;;;;;;5.90;2.88;;;32.20;99.90;;;;;;5092663;28;20660;-75
2022/05/21 13:38:33;;;;;;;5.28;3.55;;;32.10;99.90;;;;;;5092382;28;20710;-74
2022/05/21 13:41:05;;;;;;;5.63;3.15;;;31.90;99.90;;;;;;5090909;28;20254;-71